createdAt,value
2018-10-11T00:01:46.272Z,11.67
2018-10-11T00:04:16.548Z,11.73
2018-10-11T00:06:46.772Z,11.57
2018-10-11T00:09:17.016Z,11.56
2018-10-11T00:11:47.265Z,11.43
2018-10-11T00:14:17.468Z,11.24
2018-10-11T00:16:47.650Z,11.17
2018-10-11T00:19:17.842Z,11.16
2018-10-11T00:21:48.106Z,11.11
2018-10-11T00:24:19.352Z,11.16
2018-10-11T00:26:49.564Z,11.16
2018-10-11T00:29:19.746Z,11.07
2018-10-11T00:31:50.003Z,11.09
2018-10-11T00:34:20.815Z,11.03
2018-10-11T00:36:51.021Z,11.06
2018-10-11T00:39:21.248Z,11.12
2018-10-11T00:41:51.497Z,11.02
2018-10-11T00:44:22.003Z,10.94
2018-10-11T00:46:52.182Z,10.96
2018-10-11T00:49:22.430Z,11.01
2018-10-11T00:51:52.629Z,10.84
2018-10-11T00:54:22.841Z,10.84
2018-10-11T00:56:53.558Z,10.77
2018-10-11T00:59:23.782Z,10.74
2018-10-11T01:01:53.966Z,10.82
2018-10-11T01:04:24.214Z,10.85
2018-10-11T01:06:54.430Z,10.80
2018-10-11T01:09:24.819Z,10.76
2018-10-11T01:11:54.930Z,10.92
2018-10-11T01:14:25.168Z,10.59
2018-10-11T01:16:55.324Z,10.57
2018-10-11T01:19:25.542Z,10.55
2018-10-11T01:21:55.775Z,10.51
2018-10-11T01:24:26.131Z,10.42
2018-10-11T01:26:56.377Z,10.41
2018-10-11T01:29:26.626Z,10.42
2018-10-11T01:31:56.873Z,10.35
2018-10-11T01:34:27.117Z,10.40
2018-10-11T01:36:57.311Z,10.36
2018-10-11T01:39:27.547Z,10.31
2018-10-11T01:41:57.781Z,10.33
2018-10-11T01:44:28.041Z,10.34
2018-10-11T01:46:58.265Z,10.24
2018-10-11T01:49:28.495Z,10.30
2018-10-11T01:51:58.709Z,10.41
2018-10-11T01:54:28.967Z,10.35
2018-10-11T01:56:59.191Z,10.35
2018-10-11T01:59:29.403Z,10.23
2018-10-11T02:01:59.571Z,10.39
2018-10-11T02:04:29.830Z,10.20
2018-10-11T02:07:00.029Z,10.27
2018-10-11T02:09:36.974Z,10.17
2018-10-11T02:12:07.289Z,9.92
2018-10-11T02:14:37.561Z,9.97
2018-10-11T02:17:07.765Z,9.88
2018-10-11T02:19:37.976Z,9.71
2018-10-11T02:22:08.197Z,9.66
2018-10-11T02:24:38.433Z,9.77
2018-10-11T02:27:08.623Z,9.86
2018-10-11T02:29:38.843Z,9.90
2018-10-11T02:32:09.160Z,9.76
2018-10-11T02:34:39.403Z,9.71
2018-10-11T02:37:09.887Z,9.67
2018-10-11T02:39:40.093Z,9.65
2018-10-11T02:42:10.537Z,9.59
2018-10-11T02:44:41.043Z,9.50
2018-10-11T02:47:11.697Z,9.65
2018-10-11T02:49:42.437Z,9.54
2018-10-11T02:52:12.937Z,9.67
2018-10-11T02:54:43.210Z,9.52
2018-10-11T02:57:30.397Z,9.47
2018-10-11T03:00:01.430Z,9.62
2018-10-11T03:02:31.728Z,9.58
2018-10-11T03:05:02.334Z,9.71
2018-10-11T03:07:32.610Z,9.67
2018-10-11T03:10:02.864Z,9.68
2018-10-11T03:12:33.062Z,9.56
2018-10-11T03:15:03.273Z,9.39
2018-10-11T03:17:33.468Z,9.43
2018-10-11T03:20:03.770Z,9.34
2018-10-11T03:22:33.930Z,9.39
2018-10-11T03:25:04.214Z,9.26
2018-10-11T03:27:34.334Z,9.27
2018-10-11T03:30:04.560Z,9.18
2018-10-11T03:32:34.708Z,9.16
2018-10-11T03:35:05.017Z,9.26
2018-10-11T03:37:35.224Z,9.21
2018-10-11T03:40:05.702Z,9.27
2018-10-11T03:42:35.884Z,9.23
2018-10-11T03:45:06.128Z,9.28
2018-10-11T03:47:36.321Z,9.34
2018-10-11T03:50:06.575Z,9.46
2018-10-11T03:52:43.508Z,9.52
2018-10-11T03:55:13.764Z,9.63
2018-10-11T03:57:43.940Z,9.77
2018-10-11T04:00:14.152Z,9.83
2018-10-11T04:02:44.370Z,9.75
2018-10-11T04:05:15.170Z,9.88
2018-10-11T04:07:45.385Z,9.82
2018-10-11T04:10:15.606Z,9.73
2018-10-11T04:12:45.853Z,9.76
2018-10-11T04:15:16.055Z,9.69
2018-10-11T04:17:46.255Z,9.72
2018-10-11T04:20:16.472Z,10.02
2018-10-11T04:22:46.644Z,9.98
2018-10-11T04:25:16.890Z,10.15
2018-10-11T04:27:47.993Z,10.03
2018-10-11T04:30:18.836Z,9.95
2018-10-11T04:32:49.648Z,9.80
2018-10-11T04:35:19.892Z,9.81
2018-10-11T04:37:50.353Z,9.71
2018-10-11T04:40:20.565Z,9.72
2018-10-11T04:42:50.906Z,9.79
2018-10-11T04:45:21.062Z,9.89
2018-10-11T04:47:52.370Z,9.93
2018-10-11T04:50:22.578Z,10.14
2018-10-11T04:52:52.854Z,10.00
2018-10-11T04:55:23.147Z,10.07
2018-10-11T04:57:53.354Z,10.03
2018-10-11T05:00:23.592Z,10.17
2018-10-11T05:02:53.934Z,10.02
2018-10-11T05:05:24.270Z,10.01
2018-10-11T05:07:54.451Z,9.87
2018-10-11T05:10:24.755Z,10.01
2018-10-11T05:12:55.337Z,9.76
2018-10-11T05:15:26.362Z,9.79
2018-10-11T05:17:56.912Z,9.86
2018-10-11T05:20:27.222Z,9.90
2018-10-11T05:22:57.447Z,9.86
2018-10-11T05:25:27.689Z,9.76
2018-10-11T05:27:57.883Z,9.70
2018-10-11T05:30:28.158Z,9.75
2018-10-11T05:32:58.954Z,9.93
2018-10-11T05:35:29.171Z,9.77
2018-10-11T05:37:59.462Z,9.86
2018-10-11T05:40:29.782Z,9.73
2018-10-11T05:43:01.110Z,9.80
2018-10-11T05:45:31.512Z,9.66
2018-10-11T05:48:01.752Z,9.70
2018-10-11T05:50:32.022Z,9.97
2018-10-11T05:53:02.592Z,9.85
2018-10-11T05:55:32.990Z,9.88
2018-10-11T05:58:03.288Z,9.92
2018-10-11T06:00:33.543Z,9.73
2018-10-11T06:03:04.617Z,10.20
2018-10-11T06:05:35.354Z,10.27
2018-10-11T06:08:05.830Z,10.51
2018-10-11T06:10:39.166Z,10.71
2018-10-11T06:13:10.412Z,10.97
2018-10-11T06:15:41.488Z,11.19
2018-10-11T06:18:12.914Z,11.25
2018-10-11T06:20:43.425Z,11.36
2018-10-11T06:23:14.116Z,11.59
2018-10-11T06:25:44.839Z,11.74
2018-10-11T06:28:16.788Z,11.81
2018-10-11T06:30:48.002Z,11.87
2018-10-11T06:33:19.093Z,11.90
2018-10-11T06:35:49.450Z,11.91
2018-10-11T06:38:19.734Z,12.18
2018-10-11T06:40:50.011Z,12.36
2018-10-11T06:43:20.587Z,12.47
2018-10-11T06:45:50.930Z,12.50
2018-10-11T06:48:21.207Z,12.84
2018-10-11T06:50:51.473Z,13.03
2018-10-11T06:53:21.951Z,13.08
2018-10-11T06:55:53.932Z,13.28
2018-10-11T06:58:24.245Z,13.33
2018-10-11T07:00:54.584Z,13.33
2018-10-11T07:03:24.822Z,13.55
2018-10-11T07:05:55.055Z,13.66
2018-10-11T07:08:25.352Z,13.90
2018-10-11T07:10:55.588Z,13.97
2018-10-11T07:13:26.037Z,14.27
2018-10-11T07:15:56.325Z,14.42
2018-10-11T07:18:26.595Z,14.53
2018-10-11T07:20:56.921Z,14.60
2018-10-11T07:23:27.131Z,14.84
2018-10-11T07:25:57.442Z,14.95
2018-10-11T07:28:27.611Z,15.17
2018-10-11T07:30:57.832Z,15.08
2018-10-11T07:33:28.113Z,15.37
2018-10-11T07:35:58.573Z,15.57
2018-10-11T07:38:28.815Z,15.78
2018-10-11T07:40:59.137Z,15.87
2018-10-11T07:43:29.319Z,16.09
2018-10-11T07:45:59.563Z,15.95
2018-10-11T07:48:29.883Z,16.07
2018-10-11T07:51:00.146Z,16.12
2018-10-11T07:53:30.527Z,16.32
2018-10-11T07:56:00.859Z,16.43
2018-10-11T07:58:31.113Z,16.52
2018-10-11T08:01:01.446Z,16.63
2018-10-11T08:03:31.764Z,16.75
2018-10-11T08:06:02.330Z,16.88
2018-10-11T08:08:32.641Z,16.96
2018-10-11T08:11:03.341Z,17.19
2018-10-11T08:13:33.843Z,17.26
2018-10-11T08:16:04.398Z,17.38
2018-10-11T08:18:34.755Z,17.61
2018-10-11T08:21:05.014Z,17.75
2018-10-11T08:23:35.388Z,17.90
2018-10-11T08:26:06.197Z,17.96
2018-10-11T08:28:36.074Z,18.13
2018-10-11T08:31:07.602Z,18.35
2018-10-11T08:33:37.926Z,18.27
2018-10-11T08:36:08.728Z,18.33
2018-10-11T08:38:39.697Z,18.50
2018-10-11T08:41:10.659Z,18.61
2018-10-11T08:43:41.065Z,18.72
2018-10-11T08:46:11.934Z,18.75
2018-10-11T08:48:42.504Z,18.86
2018-10-11T08:51:13.995Z,18.86
2018-10-11T08:53:44.411Z,19.01
2018-10-11T08:56:15.140Z,19.12
2018-10-11T08:58:46.448Z,19.10
2018-10-11T09:01:17.464Z,19.37
2018-10-11T09:03:48.235Z,19.23
2018-10-11T09:06:18.852Z,19.35
2018-10-11T09:08:49.492Z,19.55
2018-10-11T09:11:20.623Z,19.58
2018-10-11T09:13:50.986Z,19.69
2018-10-11T09:16:21.457Z,19.71
2018-10-11T09:18:51.844Z,19.76
2018-10-11T09:21:22.096Z,19.80
2018-10-11T09:23:52.407Z,19.85
2018-10-11T09:26:22.788Z,20.02
2018-10-11T09:28:53.198Z,20.24
2018-10-11T09:31:23.481Z,20.18
2018-10-11T09:33:53.738Z,20.29
2018-10-11T09:36:24.151Z,20.40
2018-10-11T09:38:54.298Z,20.60
2018-10-11T09:41:24.900Z,20.53
2018-10-11T09:43:55.136Z,20.60
2018-10-11T09:46:32.651Z,20.87
2018-10-11T09:49:03.398Z,20.99
2018-10-11T09:51:33.780Z,21.00
2018-10-11T09:54:04.153Z,21.15
2018-10-11T09:57:39.124Z,21.11
2018-10-11T10:01:13.942Z,21.33
2018-10-11T10:03:45.626Z,21.51
2018-10-11T10:06:16.502Z,21.72
2018-10-11T10:08:47.232Z,21.82
2018-10-11T10:11:18.439Z,21.85
2018-10-11T10:13:49.668Z,21.92
2018-10-11T10:16:22.860Z,21.99
2018-10-11T10:18:53.174Z,21.97
2018-10-11T10:21:23.443Z,22.16
2018-10-11T10:23:53.628Z,22.42
2018-10-11T10:26:23.845Z,22.33
2018-10-11T10:28:54.145Z,22.11
2018-10-11T10:31:24.326Z,22.49
2018-10-11T10:33:54.752Z,22.49
2018-10-11T10:36:24.962Z,22.67
2018-10-11T10:38:55.187Z,22.44
2018-10-11T10:41:25.828Z,22.53
2018-10-11T10:43:56.288Z,22.84
2018-10-11T10:46:26.676Z,22.69
2018-10-11T10:48:57.047Z,22.65
2018-10-11T10:51:27.345Z,22.75
2018-10-11T10:53:57.651Z,22.67
2018-10-11T10:56:27.910Z,22.93
2018-10-11T10:58:58.204Z,23.11
2018-10-11T11:01:28.487Z,23.08
2018-10-11T11:03:59.554Z,23.10
2018-10-11T11:06:29.880Z,22.95
2018-10-11T11:09:00.246Z,23.16
2018-10-11T11:11:30.512Z,23.44
2018-10-11T11:14:00.758Z,23.57
2018-10-11T11:16:31.084Z,23.17
2018-10-11T11:19:01.503Z,23.63
2018-10-11T11:21:31.633Z,23.40
2018-10-11T11:24:02.064Z,23.55
2018-10-11T11:26:32.753Z,23.39
2018-10-11T11:29:04.122Z,23.04
2018-10-11T11:31:34.379Z,23.57
2018-10-11T11:34:04.994Z,23.47
2018-10-11T11:36:35.662Z,23.59
2018-10-11T11:39:09.498Z,23.65
2018-10-11T11:41:40.483Z,23.64
2018-10-11T11:44:11.459Z,23.71
2018-10-11T11:46:42.051Z,23.75
2018-10-11T11:49:12.376Z,23.79
2018-10-11T11:51:42.785Z,24.08
2018-10-11T11:54:20.187Z,24.09
2018-10-11T11:56:51.247Z,24.41
2018-10-11T11:59:22.581Z,24.44
2018-10-11T12:01:52.802Z,24.43
2018-10-11T12:04:23.121Z,24.34
2018-10-11T12:06:53.575Z,24.40
2018-10-11T12:09:23.959Z,24.30
2018-10-11T12:11:54.317Z,24.20
2018-10-11T12:14:24.697Z,24.33
2018-10-11T12:16:54.969Z,24.25
2018-10-11T12:19:25.273Z,24.45
2018-10-11T12:21:55.483Z,24.41
2018-10-11T12:24:25.821Z,24.40
2018-10-11T12:26:56.180Z,24.20
2018-10-11T12:29:26.421Z,24.11
2018-10-11T12:31:56.681Z,24.20
2018-10-11T12:34:27.104Z,24.40
2018-10-11T12:36:57.325Z,24.61
2018-10-11T12:39:27.617Z,24.30
2018-10-11T12:41:57.912Z,24.45
2018-10-11T12:44:28.563Z,24.75
2018-10-11T12:46:58.864Z,24.68
2018-10-11T12:49:29.205Z,24.71
2018-10-11T12:51:59.455Z,24.67
2018-10-11T12:54:29.700Z,24.36
2018-10-11T12:57:00.042Z,24.58
2018-10-11T12:59:30.295Z,24.79
2018-10-11T13:02:00.517Z,24.63
2018-10-11T13:04:30.780Z,24.49
2018-10-11T13:07:00.919Z,24.19
2018-10-11T13:09:32.849Z,24.06
2018-10-11T13:12:03.442Z,24.29
2018-10-11T13:14:33.677Z,24.31
2018-10-11T13:17:03.904Z,24.31
2018-10-11T13:19:34.178Z,24.37
2018-10-11T13:22:04.531Z,24.39
2018-10-11T13:24:39.766Z,24.31
2018-10-11T13:27:05.155Z,24.44
2018-10-11T13:29:35.477Z,24.57
2018-10-11T13:32:05.841Z,24.59
2018-10-11T13:34:36.157Z,24.58
2018-10-11T13:37:06.459Z,24.61
2018-10-11T13:39:36.824Z,24.82
2018-10-11T13:42:07.055Z,24.52
2018-10-11T13:44:37.414Z,24.51
2018-10-11T13:47:07.818Z,24.50
2018-10-11T13:49:38.375Z,24.52
2018-10-11T13:52:13.191Z,24.54
2018-10-11T13:54:39.451Z,24.31
2018-10-11T13:57:09.809Z,24.31
2018-10-11T13:59:40.714Z,24.39
2018-10-11T14:02:11.404Z,24.44
2018-10-11T14:04:42.103Z,24.45
2018-10-11T14:07:12.561Z,24.29
2018-10-11T14:09:43.405Z,24.10
2018-10-11T14:12:13.857Z,24.22
2018-10-11T14:14:44.232Z,24.20
2018-10-11T14:17:14.727Z,24.27
2018-10-11T14:19:45.156Z,24.09
2018-10-11T14:22:15.868Z,24.07
2018-10-11T14:24:46.476Z,24.01
2018-10-11T14:27:17.300Z,23.95
2018-10-11T14:29:48.320Z,23.84
2018-10-11T14:32:19.353Z,23.82
2018-10-11T14:34:50.699Z,24.01
2018-10-11T14:37:22.728Z,23.93
2018-10-11T14:39:53.057Z,24.00
2018-10-11T14:42:23.359Z,23.97
2018-10-11T14:44:53.699Z,23.93
2018-10-11T14:47:24.271Z,23.99
2018-10-11T14:49:54.752Z,24.03
2018-10-11T14:52:25.010Z,23.99
2018-10-11T14:54:55.301Z,24.07
2018-10-11T14:57:25.837Z,24.05
2018-10-11T14:59:56.017Z,23.93
2018-10-11T15:02:26.231Z,23.74
2018-10-11T15:04:56.501Z,23.81
2018-10-11T15:07:26.804Z,23.73
2018-10-11T15:09:57.005Z,23.59
2018-10-11T15:12:27.233Z,23.59
2018-10-11T15:14:57.489Z,23.54
2018-10-11T15:17:27.845Z,23.55
2018-10-11T15:19:58.091Z,23.55
2018-10-11T15:22:34.815Z,23.44
2018-10-11T15:25:05.885Z,23.43
2018-10-11T15:27:36.201Z,23.38
2018-10-11T15:30:07.436Z,23.40
2018-10-11T15:32:37.831Z,23.31
2018-10-11T15:35:08.456Z,23.29
2018-10-11T15:37:38.902Z,23.03
2018-10-11T15:40:09.588Z,23.23
2018-10-11T15:42:39.993Z,23.11
2018-10-11T15:45:10.574Z,23.12
2018-10-11T15:47:40.849Z,23.00
2018-10-11T15:50:11.580Z,22.89
2018-10-11T15:52:42.057Z,22.94
2018-10-11T15:55:12.611Z,22.77
2018-10-11T15:57:43.194Z,23.05
2018-10-11T16:00:13.710Z,23.00
2018-10-11T16:02:44.148Z,22.93
2018-10-11T16:05:14.777Z,22.74
2018-10-11T16:07:45.247Z,22.75
2018-10-11T16:10:15.657Z,22.61
2018-10-11T16:12:45.887Z,22.57
2018-10-11T16:15:16.204Z,22.33
2018-10-11T16:17:46.449Z,22.15
2018-10-11T16:20:16.628Z,22.00
2018-10-11T16:22:46.870Z,22.05
2018-10-11T16:25:17.685Z,22.05
2018-10-11T16:27:48.059Z,21.98
2018-10-11T16:30:18.204Z,22.03
2018-10-11T16:32:48.434Z,21.78
2018-10-11T16:35:18.727Z,21.53
2018-10-11T16:37:48.919Z,21.43
2018-10-11T16:40:19.209Z,21.41
2018-10-11T16:42:49.548Z,21.28
2018-10-11T16:45:19.869Z,21.13
2018-10-11T16:47:50.122Z,21.25
2018-10-11T16:50:20.482Z,20.92
2018-10-11T16:52:50.753Z,20.65
2018-10-11T16:55:21.031Z,20.62
2018-10-11T16:57:51.243Z,20.34
2018-10-11T17:00:21.506Z,20.26
2018-10-11T17:02:51.757Z,20.24
2018-10-11T17:05:22.043Z,20.09
2018-10-11T17:07:52.292Z,20.05
2018-10-11T17:10:22.548Z,20.11
2018-10-11T17:12:52.740Z,20.14
2018-10-11T17:15:23.010Z,20.12
2018-10-11T17:17:53.216Z,20.14
2018-10-11T17:20:23.438Z,20.13
2018-10-11T17:22:53.683Z,20.10
2018-10-11T17:25:23.900Z,19.93
2018-10-11T17:27:54.138Z,19.85
2018-10-11T17:30:25.416Z,19.82
2018-10-11T17:32:56.239Z,19.72
2018-10-11T17:35:26.776Z,19.75
2018-10-11T17:37:56.955Z,19.80
2018-10-11T17:40:30.097Z,19.73
2018-10-11T17:43:00.313Z,19.79
2018-10-11T17:45:30.597Z,19.68
2018-10-11T17:48:00.800Z,19.56
2018-10-11T17:50:31.094Z,19.61
2018-10-11T17:53:01.703Z,19.56
2018-10-11T17:55:35.135Z,19.36
2018-10-11T17:58:05.380Z,19.29
2018-10-11T18:00:35.628Z,19.18
2018-10-11T18:03:05.943Z,19.19
2018-10-11T18:05:36.156Z,19.01
2018-10-11T18:08:06.374Z,18.90
2018-10-11T18:10:37.790Z,18.87
2018-10-11T18:13:08.101Z,18.85
2018-10-11T18:15:39.441Z,18.90
2018-10-11T18:18:10.264Z,18.79
2018-10-11T18:20:40.554Z,18.71
2018-10-11T18:23:10.829Z,18.63
2018-10-11T18:25:41.029Z,18.46
2018-10-11T18:28:11.271Z,18.57
2018-10-11T18:30:41.485Z,18.49
2018-10-11T18:33:11.702Z,18.46
2018-10-11T18:35:42.075Z,18.43
2018-10-11T18:38:12.390Z,18.44
2018-10-11T18:40:42.676Z,18.40
2018-10-11T18:43:12.907Z,18.48
2018-10-11T18:45:43.152Z,18.44
2018-10-11T18:48:13.563Z,18.36
2018-10-11T18:50:43.821Z,18.38
2018-10-11T18:53:14.037Z,18.56
2018-10-11T18:55:44.365Z,18.80
2018-10-11T18:58:14.597Z,18.71
2018-10-11T19:00:45.027Z,18.60
2018-10-11T19:03:15.444Z,18.56
2018-10-11T19:05:45.964Z,18.41
2018-10-11T19:08:16.165Z,18.39
2018-10-11T19:10:46.423Z,18.42
2018-10-11T19:13:16.816Z,18.48
2018-10-11T19:15:47.063Z,18.11
2018-10-11T19:18:17.291Z,17.98
2018-10-11T19:20:47.576Z,18.10
2018-10-11T19:23:17.721Z,18.06
2018-10-11T19:25:49.222Z,17.98
2018-10-11T19:28:19.802Z,18.01
2018-10-11T19:30:50.106Z,17.94
2018-10-11T19:33:20.301Z,17.87
2018-10-11T19:35:51.010Z,17.80
2018-10-11T19:38:21.212Z,17.70
2018-10-11T19:40:51.486Z,17.58
2018-10-11T19:43:21.729Z,17.52
2018-10-11T19:45:52.238Z,17.53
2018-10-11T19:48:22.648Z,17.52
2018-10-11T19:50:52.820Z,17.52
2018-10-11T19:53:23.052Z,17.51
2018-10-11T19:55:53.285Z,17.47
2018-10-11T19:58:23.637Z,17.43
2018-10-11T20:00:53.904Z,17.42
2018-10-11T20:03:24.077Z,17.45
2018-10-11T20:05:54.318Z,17.37
2018-10-11T20:08:24.532Z,17.38
2018-10-11T20:10:54.763Z,17.32
2018-10-11T20:13:24.976Z,17.21
2018-10-11T20:15:55.287Z,17.22
2018-10-11T20:18:25.508Z,17.23
2018-10-11T20:20:55.793Z,17.26
2018-10-11T20:23:26.033Z,17.32
2018-10-11T20:25:56.352Z,17.30
2018-10-11T20:28:26.511Z,17.31
2018-10-11T20:30:56.769Z,17.28
2018-10-11T20:33:27.025Z,17.27
2018-10-11T20:35:57.288Z,17.22
2018-10-11T20:38:28.414Z,17.18
2018-10-11T20:40:58.659Z,17.18
2018-10-11T20:43:28.885Z,17.12
2018-10-11T20:45:59.098Z,17.00
2018-10-11T20:48:29.407Z,17.02
2018-10-11T20:50:59.723Z,16.97
2018-10-11T20:53:29.892Z,17.07
2018-10-11T20:56:00.172Z,17.02
2018-10-11T20:58:30.458Z,17.06
2018-10-11T21:01:00.708Z,17.03
2018-10-11T21:03:30.952Z,16.85
2018-10-11T21:06:01.245Z,16.86
2018-10-11T21:08:31.466Z,16.98
2018-10-11T21:11:01.950Z,16.93
2018-10-11T21:13:32.147Z,16.95
2018-10-11T21:16:02.401Z,16.95
2018-10-11T21:18:32.572Z,16.99
2018-10-11T21:21:02.871Z,16.98
2018-10-11T21:23:33.038Z,16.98
2018-10-11T21:26:03.317Z,16.96
2018-10-11T21:28:33.500Z,16.97
2018-10-11T21:31:03.744Z,16.93
2018-10-11T21:33:34.526Z,16.91
2018-10-11T21:36:04.810Z,16.88
2018-10-11T21:38:35.286Z,16.94
2018-10-11T21:41:05.597Z,16.92
2018-10-11T21:43:35.896Z,16.89
2018-10-11T21:46:06.189Z,16.88
2018-10-11T21:48:36.342Z,16.90
2018-10-11T21:51:06.910Z,16.88
2018-10-11T21:53:37.118Z,16.97
2018-10-11T21:56:07.379Z,16.99
2018-10-11T21:58:37.609Z,17.00
2018-10-11T22:01:12.980Z,16.93
2018-10-11T22:03:43.227Z,16.92
2018-10-11T22:06:13.493Z,16.82
2018-10-11T22:08:44.065Z,16.94
2018-10-11T22:11:14.586Z,16.92
2018-10-11T22:13:44.830Z,16.83
2018-10-11T22:16:15.066Z,16.88
2018-10-11T22:18:45.302Z,16.86
2018-10-11T22:21:15.569Z,16.85
2018-10-11T22:23:45.789Z,16.86
2018-10-11T22:26:16.030Z,16.79
2018-10-11T22:28:46.219Z,16.76
2018-10-11T22:31:16.450Z,16.82
2018-10-11T22:33:46.663Z,16.85
2018-10-11T22:36:16.903Z,16.84
2018-10-11T22:38:47.081Z,16.83
2018-10-11T22:41:17.378Z,16.81
2018-10-11T22:43:47.655Z,16.74
2018-10-11T22:46:17.973Z,16.75
2018-10-11T22:48:48.196Z,16.66
2018-10-11T22:51:18.492Z,16.64
2018-10-11T22:53:48.840Z,16.64
2018-10-11T22:56:21.674Z,16.67
2018-10-11T22:58:53.014Z,16.59
2018-10-11T23:01:23.410Z,16.55
2018-10-11T23:03:53.616Z,16.56
2018-10-11T23:06:23.910Z,16.58
2018-10-11T23:08:54.108Z,16.56
2018-10-11T23:11:24.880Z,16.48
2018-10-11T23:13:55.084Z,16.44
2018-10-11T23:16:25.316Z,16.38
2018-10-11T23:18:55.494Z,16.21
2018-10-11T23:21:27.251Z,16.15
2018-10-11T23:23:57.518Z,16.22
2018-10-11T23:26:27.746Z,16.01
2018-10-11T23:28:57.950Z,16.10
2018-10-11T23:31:28.138Z,16.10
2018-10-11T23:33:58.316Z,16.05
2018-10-11T23:36:28.528Z,15.94
2018-10-11T23:38:58.778Z,15.88
2018-10-11T23:41:29.047Z,15.92
2018-10-11T23:43:59.210Z,15.81
2018-10-11T23:46:29.468Z,15.63
2018-10-11T23:48:59.676Z,15.56
2018-10-11T23:51:29.898Z,15.50
2018-10-11T23:54:00.090Z,15.53
2018-10-11T23:56:30.316Z,15.40
2018-10-11T23:59:00.496Z,15.25
